Terminal Aerodrome Forecast
Issued by NWS

Home | Current Version | Previous Version | Graphics & Text | Print | Product List | Glossary On
Versions: 1 2 3 4 5 6 7 8 9 10 11 12 13 14 15 16 17 18
726
FTUS42 KMHX 081530 AAB
TAFPGV
TAF AMD
KPGV 081530Z 0816/0912 02005KT 6SM -RA SCT006 OVC020
     FM081800 01010KT 3SM RA OVC010
      AMD LTD TO CLD VIS AND WIND=

USA.gov is the U.S. government's official web portal to all federal, state and local government web resources and services.